Time;durP1;ratioP1;P1;durP2;ratioP2;P2;SDS_P1;SDS_P2;PMS_P1;PMS_P2;Temp;Humidity;BMP_temperature;BMP_pressure;BME280_temperature;BME280_humidity;BME280_pressure;Samples;Min_cycle;Max_cycle;Signal;HPM_P1;HPM_P2
2023/06/12 00:03:06;;;;;;;6.07;4.25;;;19.80;98.60;;;;;;5098203;28;20088;-74
2023/06/12 00:09:09;;;;;;;5.85;3.83;;;19.80;98.10;;;;;;5117091;27;20046;-72
2023/06/12 00:12:29;;;;;;;6.25;3.97;;;19.80;97.90;;;;;;5083136;27;20061;-73
2023/06/12 00:15:13;;;;;;;5.20;3.83;;;19.80;97.90;;;;;;5123194;27;20058;-74
2023/06/12 00:18:17;;;;;;;4.63;3.60;;;19.70;97.80;;;;;;5103284;27;20531;-74
2023/06/12 00:20:58;;;;;;;5.97;3.88;;;19.70;97.80;;;;;;5126578;27;20053;-73
2023/06/12 00:24:21;;;;;;;;;;;19.60;97.80;;;;;;5098975;28;20555;-73
2023/06/12 00:27:08;;;;;;;6.07;3.65;;;20.00;98.20;;;;;;5076653;28;19923;-74
2023/06/12 00:30:37;;;;;;;5.72;3.67;;;19.50;97.90;;;;;;5070276;28;20055;-75
2023/06/12 00:33:36;;;;;;;5.97;3.65;;;19.40;98.20;;;;;;5094809;28;20130;-74
2023/06/12 00:36:20;;;;;;;8.02;3.75;;;19.40;98.20;;;;;;5093217;28;20055;-73
2023/06/12 00:39:20;;;;;;;6.25;3.78;;;19.30;98.30;;;;;;5078157;28;20433;-74
2023/06/12 00:42:00;;;;;;;5.40;3.65;;;19.30;98.40;;;;;;5063610;28;20063;-75
2023/06/12 00:45:20;;;;;;;7.55;4.10;;;19.20;98.50;;;;;;5098748;28;20063;-74
2023/06/12 00:48:09;;;;;;;5.13;3.72;;;19.20;98.70;;;;;;5046619;28;20051;-74
2023/06/12 00:50:52;;;;;;;6.82;3.85;;;19.10;99.00;;;;;;5081575;28;20089;-75
2023/06/12 00:53:35;;;;;;;;;;;19.10;98.90;;;;;;5098212;28;20138;-74
2023/06/12 00:56:24;;;;;;;6.10;4.03;;;19.00;99.20;;;;;;5097074;28;19923;-74
2023/06/12 00:59:03;;;;;;;5.43;3.55;;;18.90;99.30;;;;;;5080917;28;20052;-73
2023/06/12 01:02:06;;;;;;;5.28;4.18;;;18.90;99.60;;;;;;5099129;28;20062;-73
2023/06/12 01:05:00;;;;;;;6.43;3.95;;;18.80;99.40;;;;;;5097646;28;20615;-74
2023/06/12 01:08:10;;;;;;;7.55;4.00;;;18.70;99.60;;;;;;5096328;28;20143;-73
2023/06/12 01:11:41;;;;;;;6.43;4.30;;;18.70;99.90;;;;;;5045162;28;20045;-73
2023/06/12 01:14:08;;;;;;;6.30;4.03;;;18.70;99.90;;;;;;5065225;28;20102;-74
2023/06/12 01:16:52;;;;;;;5.40;3.97;;;18.60;99.90;;;;;;5065558;28;20117;-75
2023/06/12 01:19:57;;;;;;;11.80;4.10;;;18.40;99.90;;;;;;5083511;28;20126;-75
2023/06/12 01:23:43;;;;;;;6.82;4.00;;;18.60;99.90;;;;;;5096009;28;20059;-74
2023/06/12 01:33:30;;;;;;;4.57;3.50;;;18.40;99.90;;;;;;5075956;28;20051;-74
2023/06/12 01:39:30;;;;;;;5.90;4.30;;;18.30;99.90;;;;;;5096297;28;20056;-74
2023/06/12 01:42:53;;;;;;;6.68;3.97;;;18.20;99.90;;;;;;5086262;28;20540;-74
2023/06/12 01:46:06;;;;;;;6.30;3.70;;;18.20;99.90;;;;;;5050708;28;20482;-74
2023/06/12 01:48:53;;;;;;;5.70;3.47;;;18.10;99.90;;;;;;5101643;27;20189;-74
2023/06/12 01:51:51;;;;;;;9.35;3.47;;;18.10;99.90;;;;;;5095625;27;20051;-75
2023/06/12 01:58:10;;;;;;;6.47;4.15;;;18.00;99.90;;;;;;5094438;27;20045;-75
2023/06/12 02:01:15;;;;;;;10.52;4.00;;;18.00;99.90;;;;;;5140176;27;20054;-75
2023/06/12 02:04:38;;;;;;;4.45;3.20;;;17.90;99.90;;;;;;5131039;27;20136;-73
2023/06/12 02:07:33;;;;;;;5.75;3.55;;;17.90;99.90;;;;;;5126363;27;20061;-74
2023/06/12 02:10:09;;;;;;;5.72;3.53;;;17.80;99.90;;;;;;5119996;27;20398;-74
2023/06/12 02:17:02;;;;;;;5.97;3.80;;;17.80;99.90;;;;;;5025320;28;20127;-74
2023/06/12 02:20:11;;;;;;;11.00;3.60;;;17.70;99.90;;;;;;4975254;28;20170;-74
2023/06/12 02:23:25;;;;;;;6.20;3.65;;;17.70;99.90;;;;;;5024101;28;20088;-76
2023/06/12 02:26:28;;;;;;;6.38;3.70;;;17.70;99.90;;;;;;5024427;28;20161;-73
2023/06/12 02:29:54;;;;;;;6.90;3.38;;;17.60;99.90;;;;;;5021930;28;20584;-74
2023/06/12 02:32:22;;;;;;;5.18;3.22;;;17.00;99.90;;;;;;4992600;28;20057;-74
2023/06/12 02:35:33;;;;;;;5.80;3.85;;;17.60;99.90;;;;;;5002572;28;20502;-73
2023/06/12 02:38:08;;;;;;;4.88;3.70;;;17.50;99.90;;;;;;5023635;28;20054;-74
2023/06/12 02:40:49;;;;;;;6.68;3.25;;;17.50;99.90;;;;;;4992078;28;20112;-74
2023/06/12 02:43:46;;;;;;;6.35;3.90;;;17.50;99.90;;;;;;5015203;28;20067;-74
2023/06/12 02:47:04;;;;;;;7.00;3.53;;;17.40;99.90;;;;;;5069042;28;20098;-74
2023/06/12 02:49:55;;;;;;;7.70;4.10;;;17.30;99.90;;;;;;5089124;28;20051;-74
2023/06/12 02:53:00;;;;;;;6.38;3.92;;;17.30;99.90;;;;;;5081871;28;20052;-74
2023/06/12 02:56:04;;;;;;;7.30;3.50;;;17.30;99.90;;;;;;5095562;27;20063;-74
2023/06/12 02:59:05;;;;;;;7.97;3.30;;;17.20;99.90;;;;;;5108459;27;20047;-74
2023/06/12 03:02:03;;;;;;;6.00;3.60;;;17.20;99.90;;;;;;5106771;27;20412;-75
2023/06/12 03:04:59;;;;;;;4.38;3.35;;;17.10;99.90;;;;;;5137592;27;20120;-75
2023/06/12 03:07:57;;;;;;;5.38;3.33;;;17.00;99.90;;;;;;5125281;27;20057;-74
2023/06/12 03:10:37;;;;;;;6.15;3.40;;;17.00;99.90;;;;;;5084271;27;20426;-75
2023/06/12 03:13:48;;;;;;;7.10;3.20;;;17.00;99.90;;;;;;5137568;27;20066;-74
2023/06/12 03:16:28;;;;;;;6.10;3.20;;;16.90;99.90;;;;;;5092384;27;20061;-74
2023/06/12 03:19:04;;;;;;;4.50;3.47;;;16.90;99.90;;;;;;5086127;27;20059;-74
2023/06/12 03:21:55;;;;;;;7.38;4.05;;;16.80;99.90;;;;;;5068003;27;20423;-75
2023/06/12 03:25:23;;;;;;;6.03;3.38;;;16.80;99.90;;;;;;5037500;27;20066;-74
2023/06/12 03:28:57;;;;;;;6.80;3.72;;;16.70;99.90;;;;;;5134746;27;20050;-74
2023/06/12 03:31:49;;;;;;;5.75;3.63;;;16.70;99.90;;;;;;5121162;27;20038;-73
2023/06/12 03:35:06;;;;;;;6.88;3.60;;;16.70;99.90;;;;;;5123342;27;20051;-74
2023/06/12 03:38:03;;;;;;;5.93;3.67;;;16.70;99.90;;;;;;5118348;27;20099;-74
2023/06/12 03:41:06;;;;;;;7.50;3.58;;;16.60;99.90;;;;;;5134477;27;20452;-76
2023/06/12 03:44:14;;;;;;;5.80;3.85;;;16.70;99.90;;;;;;5135624;27;20451;-75
2023/06/12 03:47:20;;;;;;;6.70;3.85;;;16.70;99.90;;;;;;5136844;27;20051;-74
2023/06/12 03:50:16;;;;;;;10.25;3.60;;;16.60;99.90;;;;;;5067661;27;20050;-75
2023/06/12 03:53:28;;;;;;;5.80;2.90;;;16.60;99.90;;;;;;5135155;27;20047;-74
2023/06/12 03:56:12;;;;;;;6.38;3.35;;;16.60;99.90;;;;;;5140330;27;20047;-74
2023/06/12 03:59:16;;;;;;;7.85;3.47;;;16.60;99.90;;;;;;5141349;27;20039;-74
2023/06/12 04:02:33;;;;;;;5.32;3.40;;;16.60;99.90;;;;;;5043961;27;20501;-74
2023/06/12 04:05:44;;;;;;;5.20;3.20;;;16.60;99.90;;;;;;5142561;27;20079;-74
2023/06/12 04:08:46;;;;;;;4.97;3.03;;;16.70;99.90;;;;;;5089508;27;20065;-75
2023/06/12 04:12:02;;;;;;;5.30;3.30;;;16.70;99.90;;;;;;5141805;27;20092;-73
2023/06/12 04:15:10;;;;;;;7.15;2.92;;;16.80;99.90;;;;;;5138492;27;20054;-73
2023/06/12 04:18:39;;;;;;;8.00;3.08;;;16.80;99.90;;;;;;5130175;27;20069;-75
2023/06/12 04:21:33;;;;;;;5.53;3.28;;;16.40;99.90;;;;;;5091758;27;20134;-75
2023/06/12 04:27:55;;;;;;;8.57;3.38;;;17.00;99.90;;;;;;5101895;27;20054;-76
2023/06/12 04:30:23;;;;;;;4.25;3.00;;;17.00;99.90;;;;;;5106312;27;20573;-75
2023/06/12 04:33:30;;;;;;;5.47;3.70;;;17.10;99.90;;;;;;5079709;28;20067;-74
2023/06/12 04:36:18;;;;;;;6.60;3.58;;;17.10;99.90;;;;;;5089304;28;20043;-74
2023/06/12 04:39:10;;;;;;;9.68;3.55;;;17.30;99.90;;;;;;5063450;28;20522;-74
2023/06/12 04:41:51;;;;;;;6.45;3.30;;;17.00;99.90;;;;;;5097168;28;20645;-74
2023/06/12 04:44:34;;;;;;;5.47;2.90;;;17.30;99.90;;;;;;5090971;28;20075;-73
2023/06/12 04:47:51;;;;;;;7.72;3.33;;;17.40;99.90;;;;;;5077772;28;20125;-73
2023/06/12 04:50:36;;;;;;;9.60;3.72;;;17.50;99.90;;;;;;5080284;28;20082;-75
2023/06/12 04:53:48;;;;;;;7.97;3.28;;;17.60;99.90;;;;;;5095995;28;20070;-74
2023/06/12 04:56:40;;;;;;;9.50;3.55;;;17.70;99.90;;;;;;5069211;28;20058;-75
2023/06/12 04:59:37;;;;;;;7.70;3.47;;;17.80;99.90;;;;;;5097110;28;20105;-74
2023/06/12 05:02:33;;;;;;;4.63;3.05;;;17.90;99.90;;;;;;5079118;28;20066;-74
2023/06/12 05:08:24;;;;;;;6.75;3.30;;;18.00;99.90;;;;;;5083592;28;20083;-75
2023/06/12 05:11:08;;;;;;;9.55;3.30;;;18.10;99.90;;;;;;5092081;27;20087;-75
2023/06/12 05:13:58;;;;;;;5.82;3.50;;;18.10;99.90;;;;;;5086450;27;20200;-74
2023/06/12 05:17:09;;;;;;;7.47;3.30;;;18.20;99.90;;;;;;5106373;27;20489;-74
2023/06/12 05:20:16;;;;;;;6.13;3.25;;;18.30;99.90;;;;;;5124986;27;20086;-74
2023/06/12 05:23:27;;;;;;;7.70;3.58;;;18.40;99.90;;;;;;5118324;27;20821;-74
2023/06/12 05:26:05;;;;;;;5.13;2.80;;;18.50;99.90;;;;;;5080231;27;20062;-73
2023/06/12 05:29:11;;;;;;;8.25;3.50;;;18.60;99.90;;;;;;5135888;27;20062;-75
2023/06/12 05:32:11;;;;;;;5.70;3.13;;;18.80;99.90;;;;;;5073765;28;20070;-74
2023/06/12 05:35:19;;;;;;;7.10;3.38;;;18.80;99.90;;;;;;5072810;28;20060;-74
2023/06/12 05:38:00;;;;;;;4.65;3.13;;;18.90;99.90;;;;;;5067472;28;20068;-74
2023/06/12 05:40:33;;;;;;;5.90;3.15;;;19.00;99.90;;;;;;5075164;28;20052;-75
2023/06/12 05:46:27;;;;;;;5.18;3.03;;;19.30;99.90;;;;;;5075823;28;20047;-74
2023/06/12 05:49:27;;;;;;;7.22;3.30;;;19.40;99.90;;;;;;5059746;28;20379;-73
2023/06/12 05:52:21;;;;;;;6.85;3.42;;;19.60;99.90;;;;;;5075488;28;20088;-73
2023/06/12 05:55:22;;;;;;;5.15;3.20;;;19.70;99.90;;;;;;5058528;28;20528;-74
2023/06/12 05:58:03;;;;;;;6.55;3.22;;;19.80;99.90;;;;;;5058798;28;20612;-73
2023/06/12 06:00:38;;;;;;;6.03;3.28;;;20.00;99.90;;;;;;5042779;28;20051;-73
2023/06/12 06:03:45;;;;;;;5.85;3.35;;;20.10;99.90;;;;;;5074016;27;20100;-74
2023/06/12 06:06:20;;;;;;;5.00;3.05;;;20.30;99.90;;;;;;5119953;27;20058;-75
2023/06/12 06:09:43;;;;;;;5.72;3.35;;;20.40;99.90;;;;;;5079225;27;20058;-73
2023/06/12 06:12:29;;;;;;;5.95;3.10;;;20.60;99.90;;;;;;5132605;27;20059;-74
2023/06/12 06:15:51;;;;;;;5.55;2.95;;;20.80;99.90;;;;;;5115550;27;20089;-74
2023/06/12 06:18:47;;;;;;;5.93;3.20;;;20.90;99.90;;;;;;5132905;27;20063;-75
2023/06/12 06:21:30;;;;;;;7.93;3.50;;;21.10;99.90;;;;;;5120292;27;20202;-75
2023/06/12 06:24:09;;;;;;;8.23;3.30;;;21.30;99.90;;;;;;5080522;27;20054;-75
2023/06/12 06:26:58;;;;;;;4.93;2.97;;;21.40;99.90;;;;;;5099266;27;20177;-74
2023/06/12 06:29:56;;;;;;;5.88;3.25;;;21.50;99.90;;;;;;5139245;27;20082;-75
2023/06/12 06:33:01;;;;;;;6.68;2.92;;;21.70;99.90;;;;;;5125559;27;20471;-75
2023/06/12 06:36:12;;;;;;;6.53;3.33;;;21.90;99.90;;;;;;5135227;27;20490;-74
2023/06/12 06:39:28;;;;;;;5.47;3.08;;;22.10;99.90;;;;;;5120922;27;20050;-74
2023/06/12 06:42:56;;;;;;;6.43;3.00;;;22.30;99.90;;;;;;5123798;27;20720;-73
2023/06/12 06:45:54;;;;;;;10.27;3.08;;;22.50;99.90;;;;;;5067749;27;20150;-76
2023/06/12 06:48:57;;;;;;;4.78;2.63;;;22.70;99.90;;;;;;5137699;27;20051;-73
2023/06/12 06:51:50;;;;;;;10.75;3.10;;;22.90;99.90;;;;;;5111543;27;20479;-74
2023/06/12 06:55:43;;;;;;;4.97;2.80;;;23.20;99.90;;;;;;5068402;27;20130;-74
2023/06/12 06:58:10;;;;;;;8.23;3.47;;;23.40;99.90;;;;;;5138748;27;20126;-75
2023/06/12 07:01:29;;;;;;;5.57;3.20;;;23.60;99.90;;;;;;5134698;27;20047;-74
2023/06/12 07:04:50;;;;;;;4.85;3.28;;;23.80;99.60;;;;;;5131998;27;20122;-74
2023/06/12 07:07:38;;;;;;;4.88;2.75;;;24.10;99.10;;;;;;5138422;27;20402;-75
2023/06/12 07:10:15;;;;;;;3.88;2.88;;;24.30;99.00;;;;;;5091180;27;20043;-75
2023/06/12 07:19:47;;;;;;;6.53;3.42;;;25.00;98.00;;;;;;5075098;28;20146;-75
2023/06/12 07:22:38;;;;;;;7.07;3.40;;;25.30;97.60;;;;;;5033196;28;20136;-75
2023/06/12 07:26:00;;;;;;;5.03;3.10;;;25.50;97.30;;;;;;5059931;28;20056;-76
2023/06/12 07:29:15;;;;;;;10.13;4.55;;;25.60;95.60;;;;;;5078916;28;20378;-75
2023/06/12 07:32:39;;;;;;;5.80;2.70;;;25.80;95.70;;;;;;5038835;28;20132;-75
2023/06/12 07:35:46;;;;;;;5.75;2.72;;;26.10;95.50;;;;;;5036977;28;20065;-72
2023/06/12 07:38:34;;;;;;;5.28;3.13;;;26.40;95.20;;;;;;5037694;28;20083;-74
2023/06/12 07:41:11;;;;;;;7.28;2.92;;;26.60;94.80;;;;;;5013203;28;20057;-74
2023/06/12 07:44:27;;;;;;;6.38;2.97;;;26.90;95.00;;;;;;4988577;28;20061;-75
2023/06/12 07:51:16;;;;;;;6.45;3.25;;;27.50;93.90;;;;;;5045412;28;20142;-73
2023/06/12 07:53:58;;;;;;;5.22;2.90;;;27.80;94.10;;;;;;5007022;28;20065;-73
2023/06/12 07:56:50;;;;;;;8.55;3.03;;;28.10;93.60;;;;;;5026516;28;20524;-74
2023/06/12 07:59:34;;;;;;;5.68;3.10;;;28.40;92.40;;;;;;5025051;28;20107;-73
2023/06/12 08:02:31;;;;;;;6.63;3.00;;;28.60;93.10;;;;;;5028895;28;20065;-74
2023/06/12 08:05:32;;;;;;;5.60;3.00;;;28.80;92.70;;;;;;5040183;28;20130;-74
2023/06/12 08:08:34;;;;;;;5.47;2.92;;;29.10;92.30;;;;;;5047105;28;20083;-74
2023/06/12 08:11:20;;;;;;;6.30;3.33;;;29.30;91.40;;;;;;5032803;28;20064;-73
2023/06/12 08:14:45;;;;;;;5.57;2.70;;;29.50;91.20;;;;;;5045328;28;20060;-74
2023/06/12 08:17:13;;;;;;;6.85;2.78;;;29.80;90.40;;;;;;5047266;28;20184;-74
2023/06/12 08:19:55;;;;;;;7.30;3.15;;;30.10;90.70;;;;;;5046543;28;20601;-74
2023/06/12 08:22:43;;;;;;;6.95;3.10;;;30.40;90.40;;;;;;5047445;28;20059;-74
2023/06/12 08:25:39;;;;;;;5.45;3.00;;;30.70;90.00;;;;;;5046988;28;20068;-74
2023/06/12 08:28:08;;;;;;;5.20;2.83;;;30.80;88.70;;;;;;5022032;28;20144;-74
2023/06/12 08:30:34;;;;;;;7.25;3.10;;;31.10;88.50;;;;;;5013249;28;20551;-75
2023/06/12 08:33:18;;;;;;;4.43;2.75;;;31.30;87.50;;;;;;5045748;28;20087;-75
2023/06/12 08:36:36;;;;;;;6.50;2.40;;;31.50;86.50;;;;;;5055540;28;20473;-74
2023/06/12 08:39:47;;;;;;;7.32;2.90;;;31.70;85.00;;;;;;5067150;28;20051;-74
2023/06/12 08:42:51;;;;;;;4.43;2.85;;;31.90;81.00;;;;;;5086869;28;20101;-75
2023/06/12 08:45:55;;;;;;;4.78;2.90;;;32.00;83.20;;;;;;5074278;28;20109;-74
2023/06/12 08:48:26;;;;;;;4.15;2.60;;;32.30;82.40;;;;;;5068833;28;20051;-74
2023/06/12 08:51:25;;;;;;;4.22;2.80;;;32.50;78.90;;;;;;5098025;27;20546;-73
2023/06/12 08:54:20;;;;;;;5.63;2.55;;;32.70;77.80;;;;;;5078959;27;20051;-73
2023/06/12 08:57:10;;;;;;;4.47;2.50;;;32.90;76.40;;;;;;5133257;27;20042;-73
2023/06/12 09:00:06;;;;;;;4.35;2.88;;;33.10;75.00;;;;;;5113726;27;20126;-74
2023/06/12 09:02:45;;;;;;;6.38;2.47;;;33.30;74.20;;;;;;5081086;27;20056;-75
2023/06/12 09:08:51;;;;;;;4.28;2.85;;;33.60;71.60;;;;;;5082585;27;20141;-76
2023/06/12 09:11:27;;;;;;;4.28;2.63;;;33.50;72.10;;;;;;5103614;27;20066;-74
2023/06/12 09:14:40;;;;;;;6.18;2.58;;;33.50;71.80;;;;;;5125086;27;20053;-74
2023/06/12 09:17:37;;;;;;;5.50;2.50;;;33.70;71.80;;;;;;5122810;27;20062;-74
2023/06/12 09:20:13;;;;;;;4.20;2.30;;;34.00;72.50;;;;;;5121904;27;20155;-73
2023/06/12 09:23:13;;;;;;;3.42;2.58;;;34.20;72.60;;;;;;5123223;27;20668;-73
2023/06/12 09:26:29;;;;;;;4.80;2.40;;;34.40;70.30;;;;;;5124007;27;20560;-75
2023/06/12 09:29:47;;;;;;;3.38;2.40;;;34.50;67.90;;;;;;5102062;27;20051;-73
2023/06/12 09:32:16;;;;;;;5.57;2.60;;;34.60;69.10;;;;;;5104346;27;20047;-75
2023/06/12 09:34:58;;;;;;;5.35;2.65;;;34.70;69.60;;;;;;5119766;27;20206;-74
2023/06/12 09:37:30;;;;;;;6.35;2.40;;;34.90;68.40;;;;;;5120794;27;20528;-73
2023/06/12 09:40:25;;;;;;;6.82;2.65;;;35.00;68.50;;;;;;5116573;27;20806;-75
2023/06/12 09:43:31;;;;;;;4.85;1.90;;;35.10;66.70;;;;;;5139824;27;20111;-74
2023/06/12 09:46:08;;;;;;;5.40;2.40;;;35.00;67.60;;;;;;5103138;27;20081;-74
2023/06/12 09:49:19;;;;;;;6.28;2.80;;;35.20;68.20;;;;;;5119429;27;20062;-74
2023/06/12 09:51:50;;;;;;;8.20;2.30;;;35.40;67.40;;;;;;5117407;27;20100;-76
2023/06/12 09:54:45;;;;;;;4.80;2.35;;;35.50;66.40;;;;;;5013975;28;20045;-75
2023/06/12 09:57:23;;;;;;;5.93;2.97;;;35.50;65.70;;;;;;5018696;28;20166;-74
2023/06/12 10:00:11;;;;;;;4.00;2.40;;;35.50;64.80;;;;;;5009914;28;20459;-74
2023/06/12 10:02:55;;;;;;;5.18;2.72;;;35.70;64.00;;;;;;5003455;28;20193;-74
2023/06/12 10:06:06;;;;;;;3.35;2.40;;;35.70;63.70;;;;;;5026811;28;20068;-74
2023/06/12 10:08:48;;;;;;;5.97;2.67;;;35.90;62.10;;;;;;5017691;28;20061;-74
2023/06/12 10:11:50;;;;;;;3.63;2.40;;;36.20;61.70;;;;;;4984251;28;20452;-75
2023/06/12 10:14:17;;;;;;;6.15;2.53;;;36.10;60.80;;;;;;4982940;28;20053;-74
2023/06/12 10:17:17;;;;;;;3.92;2.80;;;36.10;62.20;;;;;;4963176;28;20061;-74
2023/06/12 10:19:49;;;;;;;5.32;2.42;;;36.20;62.20;;;;;;4964254;28;20109;-75
2023/06/12 10:22:46;;;;;;;4.88;2.50;;;36.20;61.70;;;;;;4996718;28;20168;-73
2023/06/12 10:25:26;;;;;;;4.13;2.55;;;36.30;62.10;;;;;;4995617;28;20069;-75
2023/06/12 10:28:12;;;;;;;5.65;2.28;;;36.40;61.20;;;;;;4995778;28;20037;-73
2023/06/12 10:31:24;;;;;;;4.40;2.25;;;36.50;61.20;;;;;;4989786;28;20046;-74
2023/06/12 10:34:05;;;;;;;4.03;2.38;;;36.60;60.40;;;;;;5077608;28;20105;-74
2023/06/12 10:36:57;;;;;;;5.82;2.85;;;36.70;60.30;;;;;;5050413;28;20121;-74
2023/06/12 10:39:58;;;;;;;4.78;2.15;;;36.90;59.40;;;;;;5078141;28;20059;-75
2023/06/12 10:43:10;;;;;;;5.50;2.47;;;36.80;58.90;;;;;;5117954;27;20057;-74
2023/06/12 10:46:01;;;;;;;4.45;2.40;;;36.70;58.00;;;;;;5139071;27;20482;-73
2023/06/12 10:48:51;;;;;;;4.03;2.17;;;36.70;58.30;;;;;;5136904;27;20058;-74
2023/06/12 10:51:52;;;;;;;5.20;2.25;;;36.70;58.10;;;;;;5118695;27;20408;-74
2023/06/12 10:54:31;;;;;;;7.60;2.30;;;36.90;58.50;;;;;;5103279;27;20394;-74
2023/06/12 10:57:28;;;;;;;5.97;2.30;;;37.10;57.90;;;;;;5119601;27;20093;-75
2023/06/12 11:00:14;;;;;;;3.30;2.28;;;37.20;57.40;;;;;;5136550;27;20054;-73
2023/06/12 11:03:26;;;;;;;3.45;2.22;;;37.30;56.90;;;;;;5093058;27;20112;-74
2023/06/12 11:06:22;;;;;;;3.65;2.00;;;37.30;53.70;;;;;;5090154;27;20066;-74
2023/06/12 11:09:14;;;;;;;4.15;2.20;;;37.30;53.50;;;;;;5121080;27;20041;-75
2023/06/12 11:12:07;;;;;;;3.42;2.22;;;37.30;53.30;;;;;;5122410;27;20050;-74
2023/06/12 11:14:45;;;;;;;4.43;1.88;;;37.40;53.40;;;;;;5085327;27;20054;-74
2023/06/12 11:17:30;;;;;;;4.70;2.40;;;37.50;51.80;;;;;;5138012;27;20070;-74
2023/06/12 11:23:48;;;;;;;3.17;2.08;;;37.90;46.40;;;;;;5119532;27;20090;-75
2023/06/12 11:26:31;;;;;;;4.47;2.30;;;38.10;48.40;;;;;;5086489;27;20504;-76
2023/06/12 11:29:18;;;;;;;3.08;2.05;;;38.30;47.70;;;;;;5136165;27;20074;-75
2023/06/12 11:32:04;;;;;;;4.60;2.22;;;38.60;46.80;;;;;;5137401;27;20089;-75
2023/06/12 11:35:21;;;;;;;4.78;2.05;;;38.70;47.80;;;;;;5101757;27;20063;-75
2023/06/12 11:38:18;;;;;;;6.40;2.20;;;38.80;47.40;;;;;;5100545;27;20450;-74
2023/06/12 11:41:39;;;;;;;4.50;1.90;;;38.80;48.00;;;;;;5118813;27;20043;-74
2023/06/12 11:44:07;;;;;;;7.05;2.33;;;38.80;46.60;;;;;;5119547;27;20051;-75
2023/06/12 11:46:54;;;;;;;5.00;1.90;;;38.80;46.70;;;;;;5119630;27;20073;-74
2023/06/12 11:49:46;;;;;;;4.97;2.20;;;38.70;45.70;;;;;;5085757;27;20057;-74
2023/06/12 11:52:47;;;;;;;2.70;1.90;;;38.90;45.70;;;;;;5136216;27;20673;-74
2023/06/12 11:55:27;;;;;;;4.38;2.25;;;38.90;46.80;;;;;;5118840;27;20112;-74
2023/06/12 11:58:16;;;;;;;4.82;1.90;;;39.00;46.30;;;;;;5123068;27;20046;-75
2023/06/12 12:00:56;;;;;;;3.38;2.00;;;39.30;46.30;;;;;;5102738;27;20055;-74
2023/06/12 12:03:28;;;;;;;3.47;2.20;;;39.40;46.90;;;;;;5097768;27;20497;-72
2023/06/12 12:06:15;;;;;;;4.93;2.17;;;39.60;46.50;;;;;;5086442;27;20070;-74
2023/06/12 12:09:07;;;;;;;4.97;2.90;;;39.30;46.40;;;;;;5103960;27;20631;-73
2023/06/12 12:11:52;;;;;;;3.95;2.35;;;39.20;51.80;;;;;;5117471;27;20165;-73
2023/06/12 12:14:52;;;;;;;5.43;2.53;;;39.20;49.40;;;;;;5086710;27;20053;-75
2023/06/12 12:17:46;;;;;;;7.65;3.53;;;39.30;50.40;;;;;;5121719;27;20051;-75
2023/06/12 12:21:19;;;;;;;6.47;2.45;;;39.10;54.40;;;;;;5137469;27;20047;-74
2023/06/12 12:24:09;;;;;;;6.10;2.60;;;39.20;54.80;;;;;;5122451;27;20120;-75
2023/06/12 12:27:12;;;;;;;5.47;2.80;;;39.30;55.10;;;;;;5138874;27;20115;-74
2023/06/12 12:29:59;;;;;;;6.45;2.80;;;39.30;56.20;;;;;;5088545;27;20134;-75
2023/06/12 12:32:33;;;;;;;8.07;3.15;;;39.10;56.80;;;;;;5105391;27;20150;-73
2023/06/12 12:35:25;;;;;;;10.77;3.17;;;39.10;57.30;;;;;;5141072;27;20051;-74
2023/06/12 12:38:09;;;;;;;6.07;2.90;;;39.00;57.40;;;;;;5108905;27;20053;-74
2023/06/12 12:41:12;;;;;;;5.82;3.05;;;39.10;57.60;;;;;;5094132;27;20514;-74
2023/06/12 12:43:53;;;;;;;5.70;3.03;;;39.10;57.90;;;;;;5140139;27;20061;-74
2023/06/12 12:47:06;;;;;;;6.63;2.97;;;39.20;57.90;;;;;;5108545;27;20150;-74
2023/06/12 12:53:31;;;;;;;7.63;3.13;;;39.00;57.50;;;;;;5122380;27;20435;-76
2023/06/12 12:56:50;;;;;;;6.10;3.10;;;38.70;58.50;;;;;;5138930;27;20043;-75
2023/06/12 12:59:49;;;;;;;6.82;2.88;;;38.50;58.50;;;;;;5140559;27;20530;-74
2023/06/12 13:02:25;;;;;;;6.47;3.10;;;38.40;58.90;;;;;;5119189;27;20055;-74
2023/06/12 13:04:52;;;;;;;7.43;3.70;;;38.10;59.20;;;;;;5102005;27;20091;-73
2023/06/12 13:07:49;;;;;;;7.40;3.20;;;37.70;60.10;;;;;;5004449;28;20054;-74
2023/06/12 13:10:40;;;;;;;8.88;3.92;;;37.20;61.20;;;;;;4993581;28;20151;-78
2023/06/12 13:13:24;;;;;;;8.38;3.30;;;36.80;62.20;;;;;;4998759;28;20065;-75
2023/06/12 13:15:53;;;;;;;8.48;3.78;;;36.50;63.10;;;;;;4995911;28;20152;-74
2023/06/12 13:18:19;;;;;;;7.78;3.88;;;36.20;63.10;;;;;;5024781;27;20591;-73
2023/06/12 13:21:08;;;;;;;8.88;3.95;;;36.20;63.40;;;;;;5088610;27;20068;-73
2023/06/12 13:23:46;;;;;;;12.23;4.10;;;36.20;63.60;;;;;;5103875;27;20055;-74
2023/06/12 13:27:25;;;;;;;8.82;3.60;;;36.30;63.50;;;;;;5108809;27;20041;-75
2023/06/12 13:30:01;;;;;;;11.43;3.75;;;36.30;63.90;;;;;;5111201;27;20054;-75
2023/06/12 13:32:40;;;;;;;9.82;4.13;;;36.30;63.40;;;;;;5139569;27;20061;-75
2023/06/12 13:35:33;;;;;;;6.97;3.45;;;36.30;63.10;;;;;;5102447;27;20047;-75
2023/06/12 13:38:07;;;;;;;8.45;3.20;;;36.30;63.50;;;;;;5103404;27;20061;-75
2023/06/12 13:41:14;;;;;;;10.00;3.95;;;36.40;63.80;;;;;;5124632;27;20109;-74
2023/06/12 13:43:46;;;;;;;10.48;4.25;;;36.30;63.80;;;;;;5078655;28;20476;-74
2023/06/12 13:46:28;;;;;;;8.20;3.30;;;36.00;63.70;;;;;;5074632;28;20063;-76
2023/06/12 13:49:22;;;;;;;9.98;4.15;;;35.90;64.20;;;;;;5082371;28;20111;-75
2023/06/12 13:51:52;;;;;;;9.70;3.88;;;35.70;64.80;;;;;;5056746;28;20118;-75
2023/06/12 13:54:34;;;;;;;7.13;4.05;;;35.50;65.10;;;;;;5043270;28;20181;-75
2023/06/12 13:57:00;;;;;;;9.77;3.95;;;35.30;65.20;;;;;;5045053;28;20048;-68
2023/06/12 13:59:25;;;;;;;8.18;3.92;;;35.20;65.60;;;;;;5062865;28;20229;-70
2023/06/12 14:01:51;;;;;;;9.65;4.72;;;35.00;65.70;;;;;;5078709;28;20035;-70
2023/06/12 14:04:17;;;;;;;7.93;4.15;;;34.90;65.50;;;;;;5054022;28;20048;-70
2023/06/12 14:06:43;;;;;;;9.70;4.35;;;34.70;65.40;;;;;;5061017;28;20155;-70
2023/06/12 14:09:08;;;;;;;8.55;4.53;;;34.60;65.50;;;;;;5079376;28;20056;-70
2023/06/12 14:11:35;;;;;;;7.38;4.00;;;34.30;65.70;;;;;;5078735;28;20497;-69
2023/06/12 14:14:01;;;;;;;10.75;4.30;;;34.20;66.10;;;;;;5078738;28;20140;-69
2023/06/12 14:16:27;;;;;;;7.70;4.65;;;34.10;66.40;;;;;;5077167;28;20452;-70
2023/06/12 14:18:53;;;;;;;10.20;4.13;;;33.90;66.30;;;;;;5075368;28;20062;-70
2023/06/12 14:21:20;;;;;;;10.15;4.57;;;33.80;66.50;;;;;;5078871;28;20394;-69
2023/06/12 14:23:47;;;;;;;9.32;4.90;;;33.70;66.30;;;;;;5045316;28;20048;-71
2023/06/12 14:26:13;;;;;;;7.43;4.75;;;33.80;66.00;;;;;;5061627;28;20120;-71
2023/06/12 14:28:40;;;;;;;8.70;5.40;;;33.80;65.80;;;;;;5077603;28;20794;-71
2023/06/12 14:31:06;;;;;;;8.25;4.35;;;33.80;65.60;;;;;;5052608;28;20059;-71
2023/06/12 14:33:31;;;;;;;8.23;4.78;;;33.90;65.90;;;;;;5090253;27;20050;-70
2023/06/12 14:35:57;;;;;;;7.65;4.72;;;34.10;65.80;;;;;;5120583;27;20134;-69
2023/06/12 14:38:23;;;;;;;12.68;5.47;;;34.10;65.40;;;;;;5118839;27;20043;-69
2023/06/12 14:40:49;;;;;;;9.57;5.45;;;33.90;65.40;;;;;;5119420;27;20043;-70
2023/06/12 14:43:15;;;;;;;12.10;5.03;;;33.60;65.70;;;;;;5120325;27;20451;-70
2023/06/12 14:45:40;;;;;;;10.40;4.88;;;33.30;66.00;;;;;;5119207;27;20073;-71
2023/06/12 14:48:06;;;;;;;11.40;4.70;;;33.10;66.30;;;;;;5099946;27;20516;-69
2023/06/12 14:50:32;;;;;;;7.85;4.80;;;33.00;66.70;;;;;;5120627;27;20047;-70
2023/06/12 14:52:58;;;;;;;10.65;5.10;;;33.10;67.10;;;;;;5116733;27;20043;-69
2023/06/12 14:55:23;;;;;;;10.80;4.60;;;33.20;67.10;;;;;;5101923;27;20126;-70
2023/06/12 14:57:49;;;;;;;10.00;5.35;;;33.20;67.00;;;;;;5120067;27;20859;-69
2023/06/12 15:00:15;;;;;;;9.90;5.13;;;33.30;66.90;;;;;;5119996;27;20038;-69
2023/06/12 15:02:41;;;;;;;10.88;5.40;;;33.40;66.70;;;;;;5094362;27;20051;-69
2023/06/12 15:05:07;;;;;;;7.75;4.70;;;33.50;66.60;;;;;;5120092;27;20051;-70
2023/06/12 15:07:33;;;;;;;9.38;5.28;;;33.50;66.60;;;;;;5119036;27;20104;-70
2023/06/12 15:09:58;;;;;;;8.88;5.05;;;33.50;66.70;;;;;;5103768;27;20074;-69
2023/06/12 15:12:24;;;;;;;7.55;4.72;;;33.50;66.60;;;;;;5069265;27;20392;-70
2023/06/12 15:14:50;;;;;;;8.73;4.85;;;33.50;66.60;;;;;;5103027;27;20158;-70
2023/06/12 15:17:16;;;;;;;8.90;4.90;;;33.40;66.80;;;;;;5093702;27;20047;-71
2023/06/12 15:19:43;;;;;;;12.73;5.30;;;33.40;66.80;;;;;;5120276;27;20050;-69
2023/06/12 15:22:08;;;;;;;11.30;5.05;;;33.30;66.80;;;;;;5119805;27;20118;-70
2023/06/12 15:24:34;;;;;;;10.55;5.20;;;33.10;67.20;;;;;;5120049;27;20462;-70
2023/06/12 15:27:00;;;;;;;9.90;5.05;;;33.10;67.60;;;;;;5085610;27;20042;-71
2023/06/12 15:29:25;;;;;;;9.63;5.22;;;32.90;67.60;;;;;;5118511;27;20514;-69
2023/06/12 15:31:51;;;;;;;8.07;5.20;;;32.60;67.80;;;;;;5085835;27;20078;-70
2023/06/12 15:34:17;;;;;;;9.88;4.95;;;32.80;68.20;;;;;;5103105;27;20057;-70
2023/06/12 15:36:43;;;;;;;9.57;5.28;;;32.80;68.20;;;;;;5118594;27;20051;-70
2023/06/12 15:39:11;;;;;;;9.00;5.10;;;32.60;68.20;;;;;;5118083;27;20478;-70
2023/06/12 15:41:38;;;;;;;9.32;5.30;;;32.60;69.00;;;;;;5119406;27;20046;-69